createdAt,value
2018-02-13T06:05:33.389Z,3
2018-02-13T06:11:33.722Z,7
2018-02-13T06:14:33.984Z,10
2018-02-13T06:16:34.024Z,13
2018-02-13T06:18:04.919Z,17
2018-02-13T06:19:34.268Z,20
2018-02-13T06:20:34.317Z,23
2018-02-13T06:21:34.364Z,27
2018-02-13T06:22:05.232Z,30
2018-02-13T06:23:05.235Z,33
2018-02-13T06:23:34.475Z,37
2018-02-13T06:24:05.357Z,40
2018-02-13T06:25:05.479Z,43
2018-02-13T06:25:34.622Z,47
2018-02-13T06:26:05.448Z,50
2018-02-13T06:26:34.612Z,53
2018-02-13T06:27:05.484Z,60
2018-02-13T06:27:34.650Z,63
2018-02-13T06:28:05.563Z,67
2018-02-13T06:28:34.727Z,70
2018-02-13T06:29:05.615Z,77
2018-02-13T06:29:34.788Z,80
2018-02-13T06:30:05.693Z,83
2018-02-13T06:30:34.846Z,90
2018-02-13T06:31:05.769Z,93
2018-02-13T06:31:34.916Z,100
2018-02-13T06:32:05.811Z,107
2018-02-13T06:32:34.965Z,110
2018-02-13T06:33:05.865Z,117
2018-02-13T06:33:35.041Z,123
2018-02-13T06:34:05.905Z,130
2018-02-13T06:34:35.086Z,137
2018-02-13T06:35:06.024Z,143
2018-02-13T06:35:35.401Z,150
2018-02-13T06:36:06.039Z,157
2018-02-13T06:36:35.217Z,163
2018-02-13T06:37:06.081Z,170
2018-02-13T06:37:35.257Z,180
2018-02-13T06:38:06.147Z,187
2018-02-13T06:38:35.383Z,197
2018-02-13T06:39:06.230Z,203
2018-02-13T06:39:35.408Z,213
2018-02-13T06:40:06.330Z,217
2018-02-13T06:40:35.487Z,227
2018-02-13T06:41:06.353Z,237
2018-02-13T06:41:35.550Z,243
2018-02-13T06:42:06.399Z,253
2018-02-13T06:42:35.653Z,263
2018-02-13T06:43:06.481Z,273
2018-02-13T06:43:35.668Z,283
2018-02-13T06:44:06.574Z,293
2018-02-13T06:44:35.698Z,303
2018-02-13T06:45:07.337Z,317
2018-02-13T06:45:35.761Z,327
2018-02-13T06:46:06.720Z,337
2018-02-13T06:46:35.836Z,350
2018-02-13T06:47:06.788Z,360
2018-02-13T06:47:35.936Z,373
2018-02-13T06:48:06.856Z,383
2018-02-13T06:48:35.948Z,397
2018-02-13T06:49:06.896Z,407
2018-02-13T06:49:36.010Z,420
2018-02-13T06:50:07.237Z,427
2018-02-13T06:50:36.095Z,440
2018-02-13T06:51:07.004Z,453
2018-02-13T06:51:36.136Z,467
2018-02-13T06:52:07.052Z,477
2018-02-13T06:52:36.218Z,490
2018-02-13T06:53:07.140Z,503
2018-02-13T06:53:36.240Z,517
2018-02-13T06:54:07.124Z,530
2018-02-13T06:54:36.326Z,543
2018-02-13T06:55:07.481Z,557
2018-02-13T06:55:36.406Z,570
2018-02-13T06:56:07.327Z,587
2018-02-13T06:56:36.464Z,600
2018-02-13T06:57:07.337Z,613
2018-02-13T06:57:36.549Z,627
2018-02-13T06:58:07.443Z,640
2018-02-13T06:58:36.582Z,653
2018-02-13T06:59:07.483Z,667
2018-02-13T06:59:36.644Z,683
2018-02-13T07:00:07.609Z,700
2018-02-13T07:00:36.706Z,717
2018-02-13T07:01:07.609Z,733
2018-02-13T07:01:36.814Z,753
2018-02-13T07:02:07.687Z,773
2018-02-13T07:02:36.845Z,787
2018-02-13T07:03:07.760Z,807
2018-02-13T07:03:36.900Z,823
2018-02-13T07:04:07.743Z,837
2018-02-13T07:04:36.962Z,853
2018-02-13T07:05:07.913Z,867
2018-02-13T07:05:37.041Z,883
2018-02-13T07:06:07.868Z,897
2018-02-13T07:06:37.097Z,913
2018-02-13T07:07:07.957Z,930
2018-02-13T07:07:37.162Z,947
2018-02-13T07:08:08.029Z,963
2018-02-13T07:08:37.218Z,977
2018-02-13T07:09:08.051Z,997
2018-02-13T07:09:37.262Z,1013
2018-02-13T07:10:08.166Z,1030
2018-02-13T07:10:37.355Z,1047
2018-02-13T07:11:08.166Z,1063
2018-02-13T07:11:37.400Z,1080
2018-02-13T07:12:08.276Z,1097
2018-02-13T07:12:37.496Z,1117
2018-02-13T07:13:08.335Z,1133
2018-02-13T07:13:37.534Z,1150
2018-02-13T07:14:08.451Z,1167
2018-02-13T07:14:37.580Z,1183
2018-02-13T07:15:08.540Z,1203
2018-02-13T07:15:37.620Z,1220
2018-02-13T07:16:08.535Z,1237
2018-02-13T07:16:37.721Z,1257
2018-02-13T07:17:08.569Z,1273
2018-02-13T07:17:37.712Z,1290
2018-02-13T07:18:08.620Z,1307
2018-02-13T07:18:37.814Z,1327
2018-02-13T07:19:08.666Z,1347
2018-02-13T07:19:37.849Z,1367
2018-02-13T07:20:08.773Z,1383
2018-02-13T07:20:37.907Z,1400
2018-02-13T07:21:08.806Z,1417
2018-02-13T07:21:37.962Z,1433
2018-02-13T07:22:08.862Z,1450
2018-02-13T07:22:38.021Z,1467
2018-02-13T07:23:08.939Z,1483
2018-02-13T07:23:38.110Z,1493
2018-02-13T07:24:08.975Z,1513
2018-02-13T07:24:38.156Z,1530
2018-02-13T07:25:09.079Z,1547
2018-02-13T07:25:38.221Z,1563
2018-02-13T07:26:09.105Z,1583
2018-02-13T07:26:38.354Z,1603
2018-02-13T07:27:09.168Z,1623
2018-02-13T07:27:38.366Z,1640
2018-02-13T07:28:09.213Z,1660
2018-02-13T07:28:38.417Z,1680
2018-02-13T07:29:09.327Z,1700
2018-02-13T07:29:38.528Z,1720
2018-02-13T07:30:09.384Z,1733
2018-02-13T07:30:38.526Z,1753
2018-02-13T07:31:09.422Z,1770
2018-02-13T07:31:38.601Z,1790
2018-02-13T07:32:09.494Z,1813
2018-02-13T07:32:38.647Z,1840
2018-02-13T07:33:09.555Z,1860
2018-02-13T07:33:38.709Z,1873
2018-02-13T07:34:09.887Z,1890
2018-02-13T07:34:38.759Z,1910
2018-02-13T07:35:09.753Z,1927
2018-02-13T07:35:38.828Z,1987
2018-02-13T07:36:09.772Z,2560
2018-02-13T07:36:38.892Z,3343
2018-02-13T07:37:09.802Z,4213
2018-02-13T07:37:38.941Z,4927
2018-02-13T07:38:09.898Z,5177
2018-02-13T07:38:39.018Z,5257
2018-02-13T07:39:09.949Z,5280
2018-02-13T07:39:39.075Z,5230
2018-02-13T07:40:09.970Z,5217
2018-02-13T07:40:39.128Z,5200
2018-02-13T07:41:10.033Z,5133
2018-02-13T07:41:39.245Z,5117
2018-02-13T07:42:10.093Z,5217
2018-02-13T07:42:39.309Z,5497
2018-02-13T07:43:10.162Z,6003
2018-02-13T07:43:39.362Z,6227
2018-02-13T07:44:10.260Z,6283
2018-02-13T07:44:39.449Z,6287
2018-02-13T07:45:10.287Z,6163
2018-02-13T07:45:39.484Z,6027
2018-02-13T07:46:10.334Z,6003
2018-02-13T07:46:39.548Z,6147
2018-02-13T07:47:10.417Z,6367
2018-02-13T07:47:39.608Z,6573
2018-02-13T07:48:10.463Z,6700
2018-02-13T07:48:39.698Z,6840
2018-02-13T07:49:10.511Z,7160
2018-02-13T07:49:39.768Z,7367
2018-02-13T07:50:10.574Z,7357
2018-02-13T07:50:39.808Z,7447
2018-02-13T07:51:10.669Z,7600
2018-02-13T07:51:39.837Z,7767
2018-02-13T07:52:10.698Z,7800
2018-02-13T07:52:39.900Z,7847
2018-02-13T07:53:10.761Z,7953
2018-02-13T07:53:39.992Z,8133
2018-02-13T07:54:10.824Z,8353
2018-02-13T07:54:40.013Z,8493
2018-02-13T07:55:10.886Z,8570
2018-02-13T07:55:40.070Z,8687
2018-02-13T07:56:10.932Z,8817
2018-02-13T07:56:40.185Z,8930
2018-02-13T07:57:11.059Z,8987
2018-02-13T07:57:40.182Z,9090
2018-02-13T07:58:11.140Z,9177
2018-02-13T07:58:40.265Z,9267
2018-02-13T07:59:11.141Z,9387
2018-02-13T07:59:40.313Z,9467
2018-02-13T08:00:11.176Z,9553
2018-02-13T08:00:40.361Z,9657
2018-02-13T08:01:11.309Z,9687
2018-02-13T08:01:40.421Z,9800
2018-02-13T08:02:11.382Z,9910
2018-02-13T08:02:40.497Z,10057
2018-02-13T08:03:11.433Z,10143
2018-02-13T08:03:40.564Z,10190
2018-02-13T08:04:11.481Z,10280
2018-02-13T08:04:40.611Z,10393
2018-02-13T08:05:11.495Z,10477
2018-02-13T08:05:40.702Z,10617
2018-02-13T08:06:11.601Z,10700
2018-02-13T08:06:40.723Z,10803
2018-02-13T08:07:11.603Z,10877
2018-02-13T08:07:40.855Z,10933
2018-02-13T08:08:11.749Z,11060
2018-02-13T08:08:40.862Z,11133
2018-02-13T08:09:11.757Z,11203
2018-02-13T08:09:40.915Z,11307
2018-02-13T08:10:11.790Z,11380
2018-02-13T08:10:41.094Z,11490
2018-02-13T08:11:11.861Z,11533
2018-02-13T08:11:41.085Z,11647
2018-02-13T08:12:11.908Z,11677
2018-02-13T08:12:41.178Z,11767
2018-02-13T08:13:11.991Z,11850
2018-02-13T08:13:41.206Z,11973
2018-02-13T08:14:12.049Z,12023
2018-02-13T08:14:41.238Z,12077
2018-02-13T08:15:12.150Z,12153
2018-02-13T08:15:41.350Z,12280
2018-02-13T08:16:12.180Z,12350
2018-02-13T08:16:41.388Z,12443
2018-02-13T08:17:12.324Z,12527
2018-02-13T08:17:41.454Z,12640
2018-02-13T08:18:12.331Z,12730
2018-02-13T08:18:41.483Z,12817
2018-02-13T08:19:12.429Z,12920
2018-02-13T08:19:41.606Z,12983
2018-02-13T08:20:12.459Z,13010
2018-02-13T08:20:41.661Z,13097
2018-02-13T08:21:12.509Z,13170
2018-02-13T08:21:41.678Z,13253
2018-02-13T08:22:12.579Z,13353
2018-02-13T08:22:41.721Z,13453
2018-02-13T08:23:12.618Z,13493
2018-02-13T08:23:41.763Z,13597
2018-02-13T08:24:12.708Z,13653
2018-02-13T08:24:41.844Z,13790
2018-02-13T08:25:12.769Z,13830
2018-02-13T08:25:41.966Z,13907
2018-02-13T08:26:12.836Z,13963
2018-02-13T08:26:41.973Z,14013
2018-02-13T08:27:12.883Z,14057
2018-02-13T08:27:42.042Z,14097
2018-02-13T08:28:12.989Z,14143
2018-02-13T08:28:42.076Z,14227
2018-02-13T08:29:13.040Z,14340
2018-02-13T08:29:42.133Z,14427
2018-02-13T08:30:13.032Z,14450
2018-02-13T08:30:42.236Z,14567
2018-02-13T08:31:13.156Z,14670
2018-02-13T08:31:42.328Z,14720
2018-02-13T08:32:13.168Z,14783
2018-02-13T08:32:42.389Z,14860
2018-02-13T08:33:13.246Z,14930
2018-02-13T08:33:42.390Z,15000
2018-02-13T08:34:13.310Z,15093
2018-02-13T08:34:42.464Z,15167
2018-02-13T08:35:13.366Z,15233
2018-02-13T08:35:42.585Z,15257
2018-02-13T08:36:13.461Z,15320
2018-02-13T08:36:42.593Z,15317
2018-02-13T08:37:13.515Z,15420
2018-02-13T08:37:42.632Z,15530
2018-02-13T08:38:13.523Z,15553
2018-02-13T08:38:42.733Z,15633
2018-02-13T08:39:13.584Z,15690
2018-02-13T08:39:42.847Z,15763
2018-02-13T08:40:13.642Z,15850
2018-02-13T08:40:42.861Z,15917
2018-02-13T08:41:13.710Z,16000
2018-02-13T08:41:42.908Z,16080
2018-02-13T08:42:13.805Z,16123
2018-02-13T08:42:42.994Z,16190
2018-02-13T08:43:13.841Z,16267
2018-02-13T08:43:43.038Z,16330
2018-02-13T08:44:13.961Z,16397
2018-02-13T08:44:43.072Z,16457
2018-02-13T08:45:13.987Z,16563
2018-02-13T08:45:43.191Z,16607
2018-02-13T08:46:14.059Z,16680
2018-02-13T08:46:43.240Z,16757
2018-02-13T08:47:43.281Z,16833
2018-02-13T08:48:14.127Z,16930
2018-02-13T08:48:43.315Z,17007
2018-02-13T08:49:14.219Z,17047
2018-02-13T08:49:43.380Z,17120
2018-02-13T08:50:14.264Z,17177
2018-02-13T08:50:43.482Z,17270
2018-02-13T08:51:14.366Z,17310
2018-02-13T08:51:43.500Z,17383
2018-02-13T08:52:14.410Z,17453
2018-02-13T08:52:43.560Z,17493
2018-02-13T08:53:14.433Z,17553
2018-02-13T08:53:43.614Z,17637
2018-02-13T08:54:14.542Z,17693
2018-02-13T08:54:43.679Z,17773
2018-02-13T08:55:14.588Z,17827
2018-02-13T08:55:43.818Z,17887
2018-02-13T08:56:14.654Z,17957
2018-02-13T08:56:43.798Z,17993
2018-02-13T08:57:14.715Z,18083
2018-02-13T08:57:43.854Z,18103
2018-02-13T08:58:14.738Z,18183
2018-02-13T08:58:43.973Z,18257
2018-02-13T08:59:15.234Z,18290
2018-02-13T08:59:43.990Z,18357
2018-02-13T09:00:14.872Z,18410
2018-02-13T09:00:44.135Z,18467
2018-02-13T09:01:14.930Z,18547
2018-02-13T09:01:44.120Z,18587
2018-02-13T09:02:14.999Z,18663
2018-02-13T09:02:44.174Z,18743
2018-02-13T09:03:15.048Z,18773
2018-02-13T09:03:44.227Z,18823
2018-02-13T09:04:15.111Z,18890
2018-02-13T09:04:44.351Z,18933
2018-02-13T09:05:15.177Z,18987
2018-02-13T09:05:44.445Z,19083
2018-02-13T09:06:15.249Z,19140
2018-02-13T09:06:44.482Z,19207
2018-02-13T09:07:15.682Z,19253
2018-02-13T09:07:44.526Z,19267
2018-02-13T09:08:15.371Z,19337
2018-02-13T09:08:44.577Z,19397
2018-02-13T09:09:15.459Z,19450
2018-02-13T09:09:44.625Z,19527
2018-02-13T09:10:15.507Z,19613
2018-02-13T09:10:45.250Z,19663
2018-02-13T09:11:15.607Z,19750
2018-02-13T09:11:44.714Z,19803
2018-02-13T09:12:15.644Z,19840
2018-02-13T09:12:44.797Z,19893
2018-02-13T09:13:15.700Z,19947
2018-02-13T09:13:44.858Z,19973
2018-02-13T09:14:15.779Z,19980
2018-02-13T09:14:44.939Z,20107
2018-02-13T09:15:15.870Z,20203
2018-02-13T09:15:44.966Z,20223
2018-02-13T09:16:15.907Z,20287
2018-02-13T09:16:45.040Z,20367
2018-02-13T09:17:15.994Z,20460
2018-02-13T09:17:45.091Z,20513
2018-02-13T09:18:16.007Z,20527
2018-02-13T09:18:45.188Z,20557
2018-02-13T09:19:16.135Z,20553
2018-02-13T09:19:45.259Z,20643
2018-02-13T09:20:16.171Z,20760
2018-02-13T09:20:45.377Z,20807
2018-02-13T09:21:16.221Z,20843
2018-02-13T09:21:45.429Z,20940
2018-02-13T09:22:16.265Z,21027
2018-02-13T09:22:45.398Z,21057
2018-02-13T09:23:16.292Z,21103
2018-02-13T09:23:45.507Z,21180
2018-02-13T09:24:16.425Z,21200
2018-02-13T09:24:45.563Z,21297
2018-02-13T09:25:16.486Z,21357
2018-02-13T09:25:45.653Z,21487
2018-02-13T09:26:16.529Z,21490
2018-02-13T09:26:45.687Z,21600
2018-02-13T09:27:16.596Z,21670
2018-02-13T09:27:45.779Z,21700
2018-02-13T09:28:16.625Z,21793
2018-02-13T09:28:45.825Z,21870
2018-02-13T09:29:16.686Z,21900
2018-02-13T09:29:45.894Z,21890
2018-02-13T09:30:16.824Z,21933
2018-02-13T09:30:45.927Z,22057
2018-02-13T09:31:46.028Z,22143
2018-02-13T09:32:16.878Z,22297
2018-02-13T09:32:46.062Z,22323
2018-02-13T09:33:16.991Z,22273
2018-02-13T09:33:46.141Z,22233
2018-02-13T09:34:17.063Z,22373
2018-02-13T09:34:46.232Z,22457
2018-02-13T09:35:17.082Z,22510
2018-02-13T09:35:46.777Z,22640
2018-02-13T09:36:17.134Z,22623
2018-02-13T09:36:46.327Z,22707
2018-02-13T09:37:17.189Z,22640
2018-02-13T09:37:46.393Z,22650
2018-02-13T09:38:17.257Z,22763
2018-02-13T09:38:46.444Z,22843
2018-02-13T09:39:17.299Z,22977
2018-02-13T09:39:46.484Z,23007
2018-02-13T09:40:17.405Z,23080
2018-02-13T09:40:46.610Z,23120
2018-02-13T09:41:17.433Z,23183
2018-02-13T09:41:46.579Z,23203
2018-02-13T09:42:17.706Z,23237
2018-02-13T09:42:46.661Z,23260
2018-02-13T09:43:17.546Z,23240
2018-02-13T09:43:46.697Z,23440
2018-02-13T09:44:17.582Z,23427
2018-02-13T09:44:46.759Z,23537
2018-02-13T09:45:17.665Z,23503
2018-02-13T09:45:46.902Z,23643
2018-02-13T09:46:17.727Z,23660
2018-02-13T09:46:46.875Z,23633
2018-02-13T09:47:17.774Z,23777
2018-02-13T09:47:46.952Z,23643
2018-02-13T09:48:17.845Z,23590
2018-02-13T09:48:47.008Z,23777
2018-02-13T09:49:17.897Z,23857
2018-02-13T09:49:47.070Z,23817
2018-02-13T09:50:17.952Z,23753
2018-02-13T09:50:47.225Z,23917
2018-02-13T09:51:18.009Z,24017
2018-02-13T09:51:47.220Z,24070
2018-02-13T09:52:18.074Z,24117
2018-02-13T09:52:47.302Z,24327
2018-02-13T09:53:18.130Z,24370
2018-02-13T09:53:47.356Z,24363
2018-02-13T09:54:18.237Z,24477
2018-02-13T09:54:47.427Z,24497
2018-02-13T09:55:18.332Z,24510
2018-02-13T09:55:47.561Z,24573
2018-02-13T09:56:18.382Z,24543
2018-02-13T09:56:47.544Z,24640
2018-02-13T09:57:18.434Z,24633
2018-02-13T09:57:47.577Z,24730
2018-02-13T09:58:18.488Z,24750
2018-02-13T09:58:47.623Z,24793
2018-02-13T09:59:18.568Z,24820
2018-02-13T09:59:47.682Z,24953
2018-02-13T10:00:18.613Z,24923
2018-02-13T10:00:47.763Z,24893
2018-02-13T10:01:18.643Z,24927
2018-02-13T10:01:47.814Z,24893
2018-02-13T10:02:18.750Z,25030
2018-02-13T10:02:47.865Z,25077
2018-02-13T10:03:18.866Z,25117
2018-02-13T10:03:47.930Z,25177
2018-02-13T10:04:18.854Z,25250
2018-02-13T10:04:47.989Z,25150
2018-02-13T10:05:18.921Z,25260
2018-02-13T10:05:48.127Z,25340
2018-02-13T10:06:19.002Z,25443
2018-02-13T10:06:48.153Z,25487
2018-02-13T10:07:19.033Z,25483
2018-02-13T10:07:48.183Z,25597
2018-02-13T10:08:19.092Z,25637
2018-02-13T10:08:48.303Z,25623
2018-02-13T10:09:19.172Z,25503
2018-02-13T10:09:48.352Z,25570
2018-02-13T10:10:19.244Z,25677
2018-02-13T10:10:48.415Z,25773
2018-02-13T10:11:19.280Z,25757
2018-02-13T10:11:48.462Z,25827
2018-02-13T10:12:19.301Z,25833
2018-02-13T10:12:48.542Z,25847
2018-02-13T10:13:19.431Z,26020
2018-02-13T10:13:48.588Z,25903
2018-02-13T10:14:19.464Z,25890
2018-02-13T10:14:48.673Z,25963
2018-02-13T10:15:19.549Z,25970
2018-02-13T10:15:48.691Z,26030
2018-02-13T10:16:19.605Z,26123
2018-02-13T10:16:48.755Z,26117
2018-02-13T10:17:19.682Z,26180
2018-02-13T10:17:48.875Z,26123
2018-02-13T10:18:19.708Z,26083
2018-02-13T10:18:48.921Z,26093
2018-02-13T10:19:19.758Z,26130
2018-02-13T10:19:48.958Z,26133
2018-02-13T10:20:19.813Z,26130
2018-02-13T10:20:49.091Z,26110
2018-02-13T10:21:19.935Z,26137
2018-02-13T10:21:49.135Z,26240
2018-02-13T10:22:19.918Z,26267
2018-02-13T10:22:49.144Z,26307
2018-02-13T10:23:20.041Z,26333
2018-02-13T10:23:49.162Z,26407
2018-02-13T10:24:20.098Z,26447
2018-02-13T10:24:49.265Z,26480
2018-02-13T10:25:20.147Z,26470
2018-02-13T10:25:49.336Z,26443
2018-02-13T10:26:20.290Z,26537
2018-02-13T10:26:49.398Z,26643
2018-02-13T10:27:20.261Z,26647
2018-02-13T10:27:49.446Z,26650
2018-02-13T10:28:20.306Z,26683
2018-02-13T10:28:49.500Z,26787
2018-02-13T10:29:20.368Z,26797
2018-02-13T10:29:49.588Z,26853
2018-02-13T10:30:20.437Z,26910
2018-02-13T10:30:49.631Z,26883
2018-02-13T10:31:20.592Z,26850
2018-02-13T10:31:49.664Z,26783
2018-02-13T10:32:20.550Z,26793
2018-02-13T10:32:49.710Z,26820
2018-02-13T10:33:20.628Z,26793
2018-02-13T10:33:49.783Z,26900
2018-02-13T10:34:20.696Z,26987
2018-02-13T10:35:20.721Z,26953
2018-02-13T10:35:49.961Z,27093
2018-02-13T10:36:20.796Z,27160
2018-02-13T10:36:49.970Z,27100
2018-02-13T10:37:20.854Z,27080
2018-02-13T10:37:50.034Z,27143
2018-02-13T10:38:20.899Z,27163
2018-02-13T10:38:50.123Z,27207
2018-02-13T10:39:20.989Z,27173
2018-02-13T10:39:50.186Z,27297
2018-02-13T10:40:21.132Z,27307
2018-02-13T10:40:50.234Z,27273
2018-02-13T10:41:21.159Z,27330
2018-02-13T10:41:50.267Z,27443
2018-02-13T10:42:21.208Z,27453
2018-02-13T10:42:50.326Z,27543
2018-02-13T10:43:21.208Z,27513
2018-02-13T10:43:50.423Z,27373
2018-02-13T10:44:21.280Z,27447
2018-02-13T10:45:21.378Z,27413
2018-02-13T10:45:50.578Z,27520
2018-02-13T10:46:21.527Z,27540
2018-02-13T10:46:50.588Z,27637
2018-02-13T10:47:21.460Z,27687
2018-02-13T10:47:50.661Z,27677
2018-02-13T10:48:21.572Z,27717
2018-02-13T10:48:50.757Z,27573
2018-02-13T10:49:21.662Z,27577
2018-02-13T10:49:50.784Z,27553
2018-02-13T10:50:21.665Z,27580
2018-02-13T10:50:50.919Z,27550
2018-02-13T10:51:21.760Z,27693
2018-02-13T10:51:50.898Z,27677
2018-02-13T10:52:21.774Z,27737
2018-02-13T10:52:50.959Z,27667
2018-02-13T10:53:21.837Z,27597
2018-02-13T10:53:51.025Z,27693
2018-02-13T10:54:51.067Z,27857
2018-02-13T10:55:22.009Z,27653
2018-02-13T10:55:51.525Z,27740
2018-02-13T10:56:22.072Z,27780
2018-02-13T10:56:51.216Z,27933
2018-02-13T10:57:22.127Z,27947
2018-02-13T10:57:51.282Z,27983
2018-02-13T10:58:22.192Z,27930
2018-02-13T10:58:51.330Z,27893
2018-02-13T10:59:22.276Z,27867
2018-02-13T10:59:51.431Z,27837
2018-02-13T11:00:22.307Z,27937
2018-02-13T11:00:51.511Z,27940
2018-02-13T11:01:51.554Z,28000
2018-02-13T11:02:22.381Z,28063
2018-02-13T11:02:51.606Z,28097
2018-02-13T11:03:22.491Z,28197
2018-02-13T11:03:51.637Z,28057
2018-02-13T11:04:22.567Z,28097
2018-02-13T11:04:51.733Z,28130
2018-02-13T11:05:22.660Z,28123
2018-02-13T11:05:51.844Z,27993
2018-02-13T11:06:22.663Z,28043
2018-02-13T11:06:51.863Z,27977
2018-02-13T11:07:22.712Z,27983
2018-02-13T11:07:51.950Z,28030
2018-02-13T11:08:22.805Z,27993
2018-02-13T11:08:52.015Z,27903
2018-02-13T11:09:22.821Z,28033
2018-02-13T11:09:52.045Z,28037
2018-02-13T11:10:22.938Z,27883
2018-02-13T11:10:52.113Z,27987
2018-02-13T11:11:22.950Z,27907
2018-02-13T11:11:52.162Z,28020
2018-02-13T11:12:23.010Z,28110
2018-02-13T11:12:52.246Z,28230
2018-02-13T11:13:23.166Z,28207
2018-02-13T11:13:52.289Z,28120
2018-02-13T11:14:23.155Z,28103
2018-02-13T11:14:52.329Z,28173
2018-02-13T11:15:23.273Z,28233
2018-02-13T11:15:52.429Z,28280
2018-02-13T11:16:23.290Z,28290
2018-02-13T11:16:52.509Z,28213
2018-02-13T11:17:23.325Z,28163
2018-02-13T11:17:52.520Z,28147
2018-02-13T11:18:23.365Z,28053
2018-02-13T11:18:52.594Z,28110
2018-02-13T11:19:23.450Z,28113
2018-02-13T11:20:23.515Z,28183
2018-02-13T11:20:52.733Z,28320
2018-02-13T11:21:23.657Z,28300
2018-02-13T11:21:52.765Z,28340
2018-02-13T11:22:23.696Z,28403
2018-02-13T11:22:52.843Z,28467
2018-02-13T11:23:23.678Z,28570
2018-02-13T11:23:52.860Z,28633
2018-02-13T11:24:23.743Z,28613
2018-02-13T11:24:52.928Z,28507
2018-02-13T11:25:23.809Z,28593
2018-02-13T11:25:52.977Z,28603
2018-02-13T11:26:23.878Z,28600
2018-02-13T11:26:53.063Z,28620
2018-02-13T11:27:23.958Z,28647
2018-02-13T11:27:53.130Z,28703
2018-02-13T11:28:24.011Z,28653
2018-02-13T11:28:53.182Z,28703
2018-02-13T11:29:24.112Z,28717
2018-02-13T11:29:53.253Z,28723
2018-02-13T11:30:24.135Z,28783
2018-02-13T11:30:53.310Z,28800
2018-02-13T11:31:24.232Z,28807
2018-02-13T11:31:53.420Z,28793
2018-02-13T11:32:24.286Z,28807
2018-02-13T11:32:53.477Z,28710
2018-02-13T11:33:24.379Z,28737
2018-02-13T11:33:53.532Z,28837
2018-02-13T11:34:24.440Z,28750
2018-02-13T11:35:24.480Z,28560
2018-02-13T11:35:53.634Z,28747
2018-02-13T11:36:24.567Z,28867
2018-02-13T11:36:53.661Z,28917
2018-02-13T11:37:24.563Z,28877
2018-02-13T11:37:53.726Z,28853
2018-02-13T11:38:24.658Z,28850
2018-02-13T11:38:53.790Z,28807
2018-02-13T11:39:24.731Z,28810
2018-02-13T11:39:53.874Z,28737
2018-02-13T11:40:24.793Z,28703
2018-02-13T11:40:53.916Z,28647
2018-02-13T11:41:24.875Z,28857
2018-02-13T11:41:54.038Z,28717
2018-02-13T11:42:24.881Z,28603
2018-02-13T11:42:54.031Z,28647
2018-02-13T11:43:24.927Z,28613
2018-02-13T11:43:54.750Z,28653
2018-02-13T11:44:25.013Z,28560
2018-02-13T11:44:54.205Z,28497
2018-02-13T11:45:25.097Z,28573
2018-02-13T11:45:54.233Z,28367
2018-02-13T11:46:25.172Z,28200
2018-02-13T11:46:54.332Z,28400
2018-02-13T11:47:25.243Z,28537
2018-02-13T11:47:54.363Z,28543
2018-02-13T11:48:25.308Z,28670
2018-02-13T11:48:54.455Z,28593
2018-02-13T11:49:25.335Z,28563
2018-02-13T11:49:54.524Z,28450
2018-02-13T11:50:25.384Z,28100
2018-02-13T11:50:54.587Z,28193
2018-02-13T11:51:25.500Z,28113
2018-02-13T11:51:54.675Z,28087
2018-02-13T11:52:25.500Z,28163
2018-02-13T11:52:54.734Z,28177
2018-02-13T11:53:25.538Z,28020
2018-02-13T11:53:54.722Z,27993
2018-02-13T11:54:25.592Z,27927
2018-02-13T11:54:54.854Z,28030
2018-02-13T11:55:25.723Z,27757
2018-02-13T11:55:54.891Z,27850
2018-02-13T11:56:25.718Z,28147
2018-02-13T11:56:54.951Z,28377
2018-02-13T11:57:25.791Z,28470
2018-02-13T11:57:55.024Z,28573
2018-02-13T11:58:25.841Z,28460
2018-02-13T11:58:55.074Z,28430
2018-02-13T11:59:25.909Z,28370
2018-02-13T11:59:55.126Z,28293
2018-02-13T12:00:26.015Z,28277
2018-02-13T12:00:55.136Z,28377
2018-02-13T12:01:26.039Z,28373
2018-02-13T12:01:55.200Z,28337
2018-02-13T12:02:26.113Z,28340
2018-02-13T12:02:55.319Z,28430
2018-02-13T12:03:26.183Z,28440
2018-02-13T12:03:55.369Z,28467
2018-02-13T12:04:26.258Z,28493
2018-02-13T12:04:55.435Z,28500
2018-02-13T12:05:26.307Z,28397
2018-02-13T12:05:55.544Z,28423
2018-02-13T12:06:26.381Z,28507
2018-02-13T12:06:55.621Z,28310
2018-02-13T12:07:26.439Z,28260
2018-02-13T12:07:55.595Z,27533
2018-02-13T12:08:26.512Z,27853
2018-02-13T12:08:55.679Z,28030
2018-02-13T12:09:26.588Z,28223
2018-02-13T12:09:55.714Z,28257
2018-02-13T12:10:26.591Z,28370
2018-02-13T12:10:55.763Z,28357
2018-02-13T12:11:26.649Z,28233
2018-02-13T12:11:55.862Z,28020
2018-02-13T12:12:26.700Z,28013
2018-02-13T12:12:55.887Z,27930
2018-02-13T12:13:26.772Z,27780
2018-02-13T12:13:56.006Z,27913
2018-02-13T12:14:26.832Z,27997
2018-02-13T12:14:56.015Z,27770
2018-02-13T12:15:26.940Z,27493
2018-02-13T12:15:56.126Z,27580
2018-02-13T12:16:26.954Z,27590
2018-02-13T12:16:56.173Z,28043
2018-02-13T12:17:27.009Z,28083
2018-02-13T12:17:56.238Z,28293
2018-02-13T12:18:27.072Z,28447
2018-02-13T12:18:56.296Z,28467
2018-02-13T12:19:27.142Z,28527
2018-02-13T12:19:56.362Z,28303
2018-02-13T12:20:27.225Z,28050
2018-02-13T12:20:56.433Z,24650
2018-02-13T12:21:27.329Z,27563
2018-02-13T12:21:56.573Z,27520
2018-02-13T12:22:27.391Z,27757
2018-02-13T12:22:56.573Z,27803
2018-02-13T12:23:27.383Z,27937
2018-02-13T12:23:56.576Z,26507
2018-02-13T12:24:27.533Z,28217
2018-02-13T12:24:56.711Z,28193
2018-02-13T12:25:27.566Z,27863
2018-02-13T12:25:56.696Z,27850
2018-02-13T12:26:27.653Z,27567
2018-02-13T12:26:56.778Z,27863
2018-02-13T12:27:27.724Z,27813
2018-02-13T12:27:56.841Z,27827
2018-02-13T12:28:27.741Z,27790
2018-02-13T12:28:56.915Z,27603
2018-02-13T12:29:27.839Z,27620
2018-02-13T12:29:56.992Z,27563
2018-02-13T12:30:27.869Z,27637
2018-02-13T12:30:57.053Z,27483
2018-02-13T12:31:27.958Z,27317
2018-02-13T12:31:57.078Z,27240
2018-02-13T12:32:28.008Z,27237
2018-02-13T12:32:57.150Z,27260
2018-02-13T12:33:28.043Z,27113
2018-02-13T12:33:57.252Z,27217
2018-02-13T12:34:28.147Z,27140
2018-02-13T12:34:57.278Z,26863
2018-02-13T12:35:28.178Z,26693
2018-02-13T12:35:57.392Z,26583
2018-02-13T12:36:28.255Z,26393
2018-02-13T12:36:57.487Z,26423
2018-02-13T12:37:28.266Z,26517
2018-02-13T12:37:57.487Z,26533
2018-02-13T12:38:28.339Z,26590
2018-02-13T12:38:57.564Z,26643
2018-02-13T12:39:28.388Z,26730
2018-02-13T12:39:57.558Z,26823
2018-02-13T12:40:28.466Z,26930
2018-02-13T12:40:57.730Z,26950
2018-02-13T12:41:28.547Z,26867
2018-02-13T12:41:57.841Z,26707
2018-02-13T12:42:28.796Z,26573
2018-02-13T12:42:57.798Z,26480
2018-02-13T12:43:28.663Z,26433
2018-02-13T12:43:57.850Z,26387
2018-02-13T12:44:28.725Z,26497
2018-02-13T12:44:57.920Z,26543
2018-02-13T12:45:28.856Z,26577
2018-02-13T12:45:57.943Z,26630
2018-02-13T12:46:28.846Z,26507
2018-02-13T12:46:58.024Z,26410
2018-02-13T12:47:28.904Z,26373
2018-02-13T12:47:58.136Z,26417
2018-02-13T12:48:28.961Z,26367
2018-02-13T12:48:58.173Z,26320
2018-02-13T12:49:29.050Z,26267
2018-02-13T12:49:58.227Z,26240
2018-02-13T12:50:29.098Z,26137
2018-02-13T12:50:58.278Z,26053
2018-02-13T12:51:29.129Z,26060
2018-02-13T12:51:58.398Z,26040
2018-02-13T12:52:29.238Z,26030
2018-02-13T12:52:58.413Z,25677
2018-02-13T12:53:29.278Z,25613
2018-02-13T12:53:58.427Z,25203
2018-02-13T12:54:29.376Z,25293
2018-02-13T12:54:58.558Z,25260